Flight Track Log - Related Links

Times and Time Zones

All times are in EDT time to prevent confusion due to time zone crossing. See the EJA951 flight status page for this flight to view local times or setup timezone preferences in your user account.

Time Position Orientation Groundspeed Altitude Reporting Facility
EDT Latitude Longitude Course Direction KTS MPH feet Rate Location/Type
Fri 12:04:05 AM 47.4975 -122.2758 138° Southeast 205 236 1,400  Level Seattle Center
Fri 12:05:11 AM 47.4528 -122.2167 138° Southeast 210 242 4,800 2,551 Climbing Seattle Center
Fri 12:06:12 AM 47.4489 -122.1100 93° East 259 298 6,800 2,557 Climbing Seattle Center
Fri 12:07:13 AM 47.4436 -121.9961 94° East 277 319 10,000 2,902 Climbing Seattle Center
Fri 12:08:14 AM 47.4367 -121.8667 94° East 296 341 12,700 2,479 Climbing Seattle Center
Fri 12:09:14 AM 47.4300 -121.7361 94° East 318 366 15,000 2,281 Climbing Seattle Center
Fri 12:10:15 AM 47.4272 -121.5992 92° East 335 386 17,300 2,164 Climbing Seattle Center
Fri 12:11:16 AM 47.4242 -121.4656 92° East 348 400 19,400 2,132 Climbing Seattle Center
Fri 12:12:16 AM 47.4275 -121.3186 88° East 360 414 21,600 2,231 Climbing Seattle Center
Fri 12:13:17 AM 47.4300 -121.1697 89° East 368 423 23,900 2,213 Climbing Seattle Center
Fri 12:14:18 AM 47.4317 -121.0156 89° East 377 434 26,100 2,066 Climbing Seattle Center
Fri 12:15:19 AM 47.4333 -120.8542 89° East 394 453 28,100 1,785 Climbing Seattle Center
Fri 12:16:19 AM 47.4347 -120.6650 89° East 411 473 29,700 1,587 Climbing Seattle Center
Fri 12:17:20 AM 47.4367 -120.4864 89° East 432 497 31,300 1,475 Climbing Seattle Center
Fri 12:18:21 AM 47.4369 -120.3036 90° East 445 512 32,700 1,488 Climbing Seattle Center
Fri 12:19:21 AM 47.4383 -120.1206 89° East 449 517 34,300 1,339 Climbing Seattle Center
Fri 12:20:22 AM 47.4392 -119.9367 90° East 449 517 35,400 1,033 Climbing Seattle Center
Fri 12:21:23 AM 47.4381 -119.7511 90° East 453 521 36,400 992 Climbing Seattle Center
Fri 12:22:23 AM 47.4386 -119.5667 90° East 453 521 37,400 843 Climbing Seattle Center
Fri 12:23:24 AM 47.4386 -119.3839 90° East 448 516 38,100 590 Climbing Seattle Center
Fri 12:24:25 AM 47.4381 -119.1953 90° East 459 528 38,600 446 Climbing Seattle Center
Fri 12:25:25 AM 47.4356 -119.0064 91° East 460 529 39,000 198 Climbing Seattle Center
Fri 12:26:26 AM 47.4364 -118.8133 90° East 470 541 39,000  Level Seattle Center
Fri 12:27:27 AM 47.4339 -118.6147 91° East 483 556 39,000  Level Seattle Center
Fri 12:28:27 AM 47.4311 -118.3733 91° East 491 565 39,000  Level Seattle Center
Fri 12:29:28 AM 47.4292 -118.1697 91° East 497 572 39,000  Level Seattle Center
Fri 12:30:29 AM 47.4264 -117.9661 91° East 499 574 39,000  Level Seattle Center
Fri 12:31:29 AM 47.4233 -117.7633 91° East 498 573 39,000  Level Seattle Center
Fri 12:32:30 AM 47.4206 -117.5614 91° East 497 572 39,000  Level Seattle Center
Fri 12:33:30 AM 47.4167 -117.3608 92° East 494 568 39,000  Level Seattle Center
Fri 12:34:31 AM 47.4119 -117.1603 92° East 499 574 39,000  Level Seattle Center
Fri 12:35:32 AM 47.4081 -116.9617 92° East 498 573 39,000  Level Seattle Center
Fri 12:36:32 AM 47.4039 -116.7611 92° East 498 573 39,000  Level Seattle Center
Fri 12:37:33 AM 47.3978 -116.5569 92° East 502 578 39,000  Level Seattle Center
Fri 12:38:33 AM 47.3928 -116.3531 92° East 500 575 39,000  Level Seattle Center
Fri 12:39:34 AM 47.3844 -116.1050 93° East 505 581 39,000  Level Seattle Center
Fri 12:40:35 AM 47.3778 -115.9000 93° East 504 580 39,000  Level Seattle Center
Fri 12:41:35 AM 47.3722 -115.7297 93° East 501 577 39,000  Level Seattle Center
Fri 12:42:36 AM 47.3642 -115.4847 93° East 502 578 39,000  Level Seattle Center
Fri 12:43:36 AM 47.3567 -115.2800 93° East 504 580 39,000  Level Seattle Center
Fri 12:44:37 AM 47.3481 -115.0756 93° East 503 579 39,000  Level Seattle Center
Fri 12:45:38 AM 47.3397 -114.8719 93° East 503 579 39,000  Level Seattle Center
Fri 12:46:38 AM 47.3311 -114.6669 93° East 504 580 39,000  Level Seattle Center
Fri 12:47:27 AM 47.3242 -114.5036 94° East 502 578 39,000  Level Salt Lake Center
Fri 12:48:28 AM 47.3142 -114.2986 94° East 505 581 39,000  Level Salt Lake Center
Fri 12:49:29 AM 47.3047 -114.0967 94° East 500 575 39,000  Level Salt Lake Center
Fri 12:50:31 AM 47.2947 -113.8942 94° East 500 575 39,000  Level Salt Lake Center
Fri 12:51:32 AM 47.2836 -113.6917 95° East 502 578 39,000  Level Salt Lake Center
Fri 12:52:33 AM 47.2733 -113.4883 94° East 502 578 39,000  Level Salt Lake Center
Fri 12:53:34 AM 47.2606 -113.2458 94° East 500 575 39,000  Level Salt Lake Center
Fri 12:54:35 AM 47.2486 -113.0428 95° East 501 577 39,000  Level Salt Lake Center
Fri 12:55:36 AM 47.2367 -112.8469 95° East 500 575 39,000  Level Salt Lake Center
Fri 12:56:37 AM 47.2256 -112.6433 95° East 502 578 39,000  Level Salt Lake Center
Fri 12:58:00 AM 47.2076 -112.3669 95° East  Level FlightAware Approximate
Fri 01:00:43 AM 47.1703 -111.7850 96° East 508 585 39,000  Level Salt Lake Center
Fri 01:01:44 AM 47.1556 -111.5794 96° East 510 587 39,000  Level Salt Lake Center
Fri 01:02:45 AM 47.1403 -111.3758 96° East 509 586 39,000  Level Salt Lake Center
Fri 01:03:46 AM 47.1264 -111.1725 96° East 508 585 39,000  Level Salt Lake Center
Fri 01:04:47 AM 47.1114 -110.9667 96° East 511 588 39,000  Level Salt Lake Center
Fri 01:05:00 AM 47.1067 -110.9709 96° East  Level FlightAware Approximate
Fri 01:05:47 AM 47.0942 -110.7603 97° East 514 592 39,000  Level Salt Lake Center
Fri 01:06:48 AM 47.0772 -110.5539 97° East 515 593 38,900  Descending Salt Lake Center
Fri 01:07:49 AM 47.0614 -110.3461 96° East 516 594 39,000 98 Climbing Salt Lake Center
Fri 01:08:50 AM 47.0450 -110.1375 97° East 518 596 39,100 590 Climbing Salt Lake Center
Fri 01:09:51 AM 47.0250 -109.8914 97° East 513 590 40,200 787 Climbing Salt Lake Center
Fri 01:10:52 AM 47.0092 -109.6911 97° East 504 580 40,700 393 Climbing Salt Lake Center
Fri 01:11:53 AM 46.9906 -109.4914 98° East 499 574 41,000 99 Climbing Salt Lake Center
Fri 01:12:53 AM 46.9711 -109.2847 98° East 507 583 40,900  Descending Salt Lake Center
Fri 01:13:54 AM 46.9528 -109.0775 97° East 514 592 41,000 49 Climbing Salt Lake Center
Fri 01:14:55 AM 46.9289 -108.8594 99° East 509 586 41,000 197 Level Salt Lake Center
Fri 01:15:56 AM 46.9106 -108.6581 98° East 517 595 41,400 639 Climbing Salt Lake Center
Fri 01:16:57 AM 46.8917 -108.4633 98° East 510 587 42,300 793 Climbing Salt Lake Center
Fri 01:17:57 AM 46.8700 -108.2469 98° East 487 560 43,000 344 Climbing Salt Lake Center
Fri 01:18:59 AM 46.8508 -108.0575 98° East 489 563 43,000  Level Salt Lake Center
Fri 01:19:59 AM 46.8308 -107.8586 98° East 507 583 43,000  Level Salt Lake Center
Fri 01:21:00 AM 46.8075 -107.6300 98° East 509 586 43,000  Level Salt Lake Center
Fri 01:22:00 AM 46.7864 -107.4322 99° East 512 589 43,000  Level Salt Lake Center
Fri 01:23:01 AM 46.7642 -107.2344 99° East 515 593 43,000  Level Salt Lake Center
Fri 01:24:02 AM 46.7381 -107.0022 99° East 518 596 43,000  Level Salt Lake Center
Fri 01:25:02 AM 46.7153 -106.8019 99° East 521 600 43,000  Level Salt Lake Center
Fri 01:26:03 AM 46.6936 -106.6058 99° East 517 595 43,000  Level Salt Lake Center
Fri 01:27:04 AM 46.6653 -106.3733 100° East 521 600 43,000  Level Salt Lake Center
Fri 01:28:04 AM 46.6403 -106.1731 100° East 524 603 43,000  Level Salt Lake Center
Fri 01:29:05 AM 46.6153 -105.9747 100° East 522 601 43,000  Level Salt Lake Center
Fri 01:30:06 AM 46.5872 -105.7456 100° East 519 597 43,000  Level Salt Lake Center
Fri 01:31:06 AM 46.5622 -105.5489 100° East 518 596 43,000  Level Salt Lake Center
Fri 01:32:07 AM 46.5369 -105.3517 100° East 518 596 43,000 -148 Level Salt Lake Center
Fri 01:33:08 AM 46.5125 -105.1564 100° East 515 593 42,700 -443 Descending Salt Lake Center
Fri 01:34:09 AM 46.4833 -104.9275 100° East 516 594 42,100 -545 Descending Salt Lake Center
Fri 01:35:09 AM 46.4592 -104.7444 101° East 521 600 41,600 -496 Descending Salt Lake Center
Fri 01:36:10 AM 46.4311 -104.5367 101° East 526 605 41,100 -298 Descending Salt Lake Center
Fri 01:37:10 AM 46.4044 -104.3325 101° East 523 602 41,000 -50 Descending Salt Lake Center
Fri 01:38:11 AM 46.3769 -104.1264 101° East 523 602 41,000  Level Salt Lake Center
Fri 01:39:12 AM 46.3408 -103.8808 102° East 524 603 41,000  Level Salt Lake Center
Fri 01:40:12 AM 46.3125 -103.6767 101° East 522 601 41,000  Level Salt Lake Center
Fri 01:41:13 AM 46.2831 -103.4694 102° East 524 603 41,000  Level Salt Lake Center
Fri 01:42:13 AM 46.2536 -103.2617 102° East 527 606 41,000  Level Salt Lake Center
Fri 01:43:24 AM 46.2181 -103.0200 102° East 528 608 41,000  Level Minneapolis Center
Fri 01:44:24 AM 46.1872 -102.8136 102° East 528 608 41,000  Level Minneapolis Center
Fri 01:45:25 AM 46.1547 -102.6064 103° East 531 611 41,000  Level Minneapolis Center
Fri 01:46:25 AM 46.1225 -102.3992 103° East 532 612 41,000  Level Minneapolis Center
Fri 01:47:25 AM 46.0886 -102.1947 103° East 532 612 41,000  Level Minneapolis Center
Fri 01:48:25 AM 46.0522 -101.9886 104° East 532 612 41,000  Level Minneapolis Center
Fri 01:49:26 AM 46.0203 -101.7789 102° East 533 613 41,000  Level Minneapolis Center
Fri 01:50:26 AM 45.9858 -101.5683 103° East 536 617 41,000  Level Minneapolis Center
Fri 01:51:26 AM 45.9525 -101.3592 103° East 537 618 41,000  Level Minneapolis Center
Fri 01:52:26 AM 45.9217 -101.1433 102° East 543 625 41,000  Level Minneapolis Center
Fri 01:53:27 AM 45.8861 -100.9319 104° East 545 627 41,000  Level Minneapolis Center
Fri 01:54:27 AM 45.8497 -100.7219 104° East 543 625 41,000  Level Minneapolis Center
Fri 01:55:27 AM 45.8136 -100.5128 104° East 540 621 41,000  Level Minneapolis Center
Fri 01:56:27 AM 45.7764 -100.3019 104° East 542 624 41,000  Level Minneapolis Center
Fri 01:57:28 AM 45.7383 -100.0886 104° East 548 631 41,000  Level Minneapolis Center
Fri 01:58:28 AM 45.7017 -99.8769 104° East 547 629 41,000  Level Minneapolis Center
Fri 01:59:28 AM 45.6622 -99.6653 105° East 547 629 41,000  Level Minneapolis Center
Fri 02:00:28 AM 45.6244 -99.4522 104° East 549 632 41,000  Level Minneapolis Center
Fri 02:01:29 AM 45.5856 -99.2428 105° East 546 628 41,000  Level Minneapolis Center
Fri 02:02:29 AM 45.5458 -99.0333 105° East 544 626 41,000 50 Level Minneapolis Center
Fri 02:03:29 AM 45.5056 -98.8228 105° East 546 628 41,100 450 Climbing Minneapolis Center
Fri 02:04:29 AM 45.4672 -98.6211 105° East 534 615 41,900 595 Climbing Minneapolis Center
Fri 02:05:30 AM 45.4283 -98.4197 105° East 528 608 42,300 446 Climbing Minneapolis Center
Fri 02:06:30 AM 45.4111 -98.2147 97° East 523 602 42,800 350 Climbing Minneapolis Center
Fri 02:07:30 AM 45.4056 -98.0478 93° East 527 606 43,000 40 Climbing Minneapolis Center
Fri 02:09:00 AM 45.3898 -97.7563 94° East  Level FlightAware Approximate
Fri 02:11:31 AM 45.3711 -97.1394 94° East 541 623 43,000  Level Minneapolis Center
Fri 02:12:31 AM 45.3617 -96.9269 94° East 539 620 43,000  Level Minneapolis Center
Fri 02:13:32 AM 45.3517 -96.7175 94° East 533 613 43,000  Level Minneapolis Center
Fri 02:14:32 AM 45.3414 -96.5078 94° East 532 612 43,000  Level Minneapolis Center
Fri 02:15:32 AM 45.3303 -96.2972 94° East 533 613 43,000  Level Minneapolis Center
Fri 02:16:00 AM 45.3287 -96.3961 93° East  Level FlightAware Approximate
Fri 02:16:32 AM 45.3192 -96.0872 94° East 533 613 43,000  Level Minneapolis Center
Fri 02:17:00 AM 45.3187 -96.2021 94° East  Level FlightAware Approximate
Fri 02:17:33 AM 45.3081 -95.8761 94° East 535 616 43,000  Level Minneapolis Center
Fri 02:18:33 AM 45.2981 -95.6636 94° East 538 619 43,000  Level Minneapolis Center
Fri 02:19:33 AM 45.2853 -95.4525 95° East 537 618 43,000  Level Minneapolis Center
Fri 02:20:34 AM 45.2728 -95.2431 95° East 533 613 43,000  Level Minneapolis Center
Fri 02:21:34 AM 45.2603 -95.0339 95° East 532 612 43,000  Level Minneapolis Center
Fri 02:22:34 AM 45.2472 -94.8256 95° East 531 611 43,000  Level Minneapolis Center
Fri 02:23:34 AM 45.2339 -94.6186 95° East 528 608 43,000  Level Minneapolis Center
Fri 02:24:35 AM 45.2219 -94.4497 96° East 529 609 43,000  Level Minneapolis Center
Fri 02:25:35 AM 45.2067 -94.2036 95° East 525 604 43,000  Level Minneapolis Center
Fri 02:26:35 AM 45.1914 -93.9967 96° East 528 608 43,000  Level Minneapolis Center
Fri 02:27:36 AM 45.1761 -93.7892 96° East 529 609 43,000  Level Minneapolis Center
Fri 02:28:36 AM 45.1606 -93.5819 96° East 529 609 43,000  Level Minneapolis Center
Fri 02:29:36 AM 45.1453 -93.3719 96° East 533 613 43,000  Level Minneapolis Center
Fri 02:30:36 AM 45.1272 -93.1611 97° East 535 616 43,000  Level Minneapolis Center
Fri 02:31:37 AM 45.1117 -92.9908 97° East 540 621 43,000  Level Minneapolis Center
Fri 02:32:37 AM 45.0925 -92.7792 97° East 540 621 43,000  Level Minneapolis Center
Fri 02:33:37 AM 45.0733 -92.5706 97° East 536 617 43,000  Level Minneapolis Center
Fri 02:34:38 AM 45.0539 -92.3603 97° East 538 619 43,000  Level Minneapolis Center
Fri 02:35:38 AM 45.0331 -92.1497 98° East 541 623 43,000  Level Minneapolis Center
Fri 02:36:38 AM 45.0069 -91.8997 98° East 537 618 43,000  Level Minneapolis Center
Fri 02:37:39 AM 44.9858 -91.6917 98° East 535 616 43,000  Level Minneapolis Center
Fri 02:38:39 AM 44.9611 -91.4850 100° East 535 616 43,000  Level Minneapolis Center
Fri 02:39:39 AM 44.9400 -91.2797 98° East 534 615 43,000  Level Minneapolis Center
Fri 02:40:39 AM 44.9181 -91.0739 98° East 532 612 43,000  Level Minneapolis Center
Fri 02:41:40 AM 44.8933 -90.8681 100° East 534 615 43,000  Level Minneapolis Center
Fri 02:42:40 AM 44.8733 -90.6906 99° East 533 613 43,000  Level Minneapolis Center
Fri 02:43:40 AM 44.8392 -90.4875 103° East 535 616 43,000  Level Minneapolis Center
Fri 02:44:41 AM 44.8042 -90.2664 103° East 536 617 43,000  Level Minneapolis Center
Fri 02:45:41 AM 44.7694 -90.0614 103° East 538 619 43,000  Level Minneapolis Center
Fri 02:46:41 AM 44.7347 -89.8561 103° East 540 621 43,000  Level Minneapolis Center
Fri 02:47:42 AM 44.6992 -89.6539 104° East 536 617 43,000  Level Minneapolis Center
Fri 02:48:42 AM 44.6633 -89.4497 104° East 537 618 43,000  Level Minneapolis Center
Fri 02:49:42 AM 44.6275 -89.2472 104° East 536 617 43,000  Level Minneapolis Center
Fri 02:50:42 AM 44.5925 -89.0433 103° East 536 617 43,000  Level Minneapolis Center
Fri 02:51:43 AM 44.5556 -88.8419 104° East 532 612 43,000  Level Minneapolis Center
Fri 02:52:43 AM 44.5192 -88.6386 104° East 535 616 43,000  Level Minneapolis Center
Fri 02:53:43 AM 44.4811 -88.4372 105° East 533 613 43,000  Level Minneapolis Center
Fri 02:54:44 AM 44.4433 -88.2347 105° East 536 617 43,000  Level Minneapolis Center
Fri 02:55:44 AM 44.4047 -88.0328 105° East 536 617 43,000  Level Minneapolis Center
Fri 02:56:44 AM 44.3669 -87.8322 105° East 533 613 43,000  Level Minneapolis Center
Fri 02:57:45 AM 44.3278 -87.6300 105° East 536 617 43,000  Level Minneapolis Center
Fri 02:58:45 AM 44.2883 -87.4283 105° East 536 617 43,000  Level Minneapolis Center
Fri 02:59:45 AM 44.2492 -87.2311 105° East 530 610 43,000  Level Minneapolis Center
Fri 03:00:46 AM 44.2086 -87.0247 105° East 531 611 43,000  Level Minneapolis Center
Fri 03:01:46 AM 44.1697 -86.8300 105° East 528 608 43,000  Level Minneapolis Center
Fri 03:02:46 AM 44.1306 -86.6378 106° East 525 604 43,000  Level Minneapolis Center
Fri 03:03:47 AM 44.0903 -86.4400 106° East 529 609 43,000 -149 Level Minneapolis Center
Fri 03:04:47 AM 44.0497 -86.2433 106° East 529 609 42,700 -400 Descending Minneapolis Center
Fri 03:05:47 AM 44.0086 -86.0406 106° East 539 620 42,200 -500 Descending Minneapolis Center
Fri 03:06:47 AM 43.9653 -85.8364 106° East 548 631 41,700 -496 Descending Minneapolis Center
Fri 03:07:48 AM 43.9233 -85.6344 106° East 545 627 41,200 -347 Descending Minneapolis Center
Fri 03:08:48 AM 43.8797 -85.4325 107° East 546 628 41,000 -100 Descending Minneapolis Center
Fri 03:09:48 AM 43.8369 -85.2311 106° East 545 627 41,000  Level Minneapolis Center
Fri 03:10:49 AM 43.7936 -85.0311 107° East 542 624 41,000  Level Minneapolis Center
Fri 03:11:49 AM 43.7486 -84.8319 107° East 542 624 41,000  Level Minneapolis Center
Fri 03:12:49 AM 43.7047 -84.6322 107° East 541 623 41,000  Level Minneapolis Center
Fri 03:13:49 AM 43.6603 -84.4344 107° East 541 623 41,000  Level Minneapolis Center
Fri 03:14:35 AM 43.6228 -84.2683 107° East 541 623 41,000  Level Cleveland Center
Fri 03:15:35 AM 43.5917 -84.0628 102° East 541 623 41,000  Level Cleveland Center
Fri 03:15:50 AM 43.5953 -84.0300 81° East 541 623 41,000  Level Minneapolis Center
Fri 03:16:50 AM 43.5875 -83.8244 93° East 539 620 41,000  Level Minneapolis Center
Fri 03:17:51 AM 43.5794 -83.6203 93° East 535 616 41,000  Level Minneapolis Center
Fri 03:18:51 AM 43.5725 -83.4161 93° East 534 615 41,000  Level Minneapolis Center
Fri 03:19:35 AM 43.5589 -83.2503 96° East 534 615 41,000  Level Cleveland Center
Fri 03:20:35 AM 43.5508 -83.0464 93° East 539 620 41,000  Level Cleveland Center
Fri 03:21:35 AM 43.5425 -82.8456 93° East 534 615 41,000  Level Cleveland Center
Fri 03:22:35 AM 43.5319 -82.6389 94° East 534 615 41,000  Level Cleveland Center
Fri 03:23:35 AM 43.5228 -82.4356 93° East 534 615 41,000  Level Cleveland Center
Fri 03:24:35 AM 43.5114 -82.2292 94° East 539 620 41,000  Level Cleveland Center
Fri 03:25:42 AM 43.4833 -82.0000 100° East 530 610 41,000  Level Toronto Center
Fri 03:26:42 AM 43.4833 -81.8000 90° East 540 621 41,000  Level Toronto Center
Fri 03:27:42 AM 43.4667 -81.5833 96° East 530 610 41,000  Level Toronto Center
Fri 03:28:42 AM 43.4500 -81.3833 96° East 540 621 41,000  Level Toronto Center
Fri 03:29:42 AM 43.4333 -81.1667 96° East 530 610 41,000  Level Toronto Center
Fri 03:30:42 AM 43.4167 -80.9833 97° East 530 610 41,000  Level Toronto Center
Fri 03:31:42 AM 43.4167 -80.7500 90° East 530 610 41,000  Level Toronto Center
Fri 03:32:42 AM 43.4000 -80.5667 97° East 530 610 41,000  Level Toronto Center
Fri 03:33:42 AM 43.3833 -80.3667 96° East 530 610 41,000  Level Toronto Center
Fri 03:34:42 AM 43.3833 -80.1667 90° East 540 621 41,000  Level Toronto Center
Fri 03:35:42 AM 43.3667 -79.9500 96° East 540 621 41,000  Level Toronto Center
Fri 03:36:42 AM 43.3500 -79.7500 96° East 540 621 41,000  Level Toronto Center
Fri 03:37:42 AM 43.3333 -79.5333 96° East 540 621 41,000  Level Toronto Center
Fri 03:38:42 AM 43.3167 -79.3333 96° East 540 621 41,000  Level Toronto Center
Fri 03:39:42 AM 43.3000 -79.1333 96° East 540 621 41,000  Level Toronto Center
Fri 03:40:42 AM 43.2833 -78.9167 96° East 540 621 41,000  Level Toronto Center
Fri 03:41:59 AM 43.2703 -78.6986 95° East 541 623 41,000  Level Cleveland Center
Fri 03:42:59 AM 43.2519 -78.4911 97° East 541 623 41,000  Level Cleveland Center
Fri 03:43:59 AM 43.2333 -78.2694 96° East 536 617 41,000  Level Cleveland Center
Fri 03:44:59 AM 43.2144 -78.0650 97° East 536 617 41,000  Level Cleveland Center
Fri 03:45:59 AM 43.1953 -77.8608 97° East 536 617 41,000  Level Cleveland Center
Fri 03:47:51 AM 43.1608 -77.5108 98° East 553 636 41,000  Level Boston Center
Fri 03:48:51 AM 43.1425 -77.3100 97° East 545 627 41,000 -500 Level Boston Center
Fri 03:49:51 AM 43.1242 -77.1033 97° East 539 620 40,000 -1,250 Descending Boston Center
Fri 03:50:51 AM 43.1031 -76.8969 98° East 545 627 38,500 -1,500 Descending Boston Center
Fri 03:51:51 AM 43.0803 -76.6764 98° East 545 627 37,000 -1,400 Descending Boston Center
Fri 03:52:51 AM 43.0653 -76.5133 97° East 545 627 35,700 -1,550 Descending Boston Center
Fri 03:53:51 AM 43.0400 -76.2842 99° East 524 603 33,900 -1,650 Descending Boston Center
Fri 03:54:51 AM 43.0214 -76.0925 98° East 514 592 32,400 -1,500 Descending Boston Center
Fri 03:55:51 AM 42.9983 -75.8953 99° East 514 592 30,900 -1,600 Descending Boston Center
Fri 03:56:51 AM 42.9786 -75.7125 98° East 526 605 29,200 -2,000 Descending Boston Center
Fri 03:57:51 AM 42.9547 -75.5211 100° East 526 605 26,900 -2,400 Descending Boston Center
Fri 03:58:51 AM 42.9367 -75.3331 97° East 513 590 24,400 -2,550 Descending Boston Center
Fri 03:59:51 AM 42.9142 -75.1533 100° East 497 572 21,800 -2,600 Descending Boston Center
Fri 04:00:51 AM 42.8953 -74.9794 98° East 475 547 19,200 -2,617 Descending Boston Center
Fri 04:01:25 AM 42.8831 -74.8714 99° East 443 510 17,700 -2,400 Descending Boston Center
Fri 04:01:51 AM 42.8758 -74.8144 100° East 456 525 16,800 -2,636 Descending Boston Center
Fri 04:02:31 AM 42.8575 -74.6861 101° East 433 498 14,800 -2,700 Descending Boston Center
Fri 04:02:51 AM 42.8522 -74.6350 98° East 442 509 14,100 -2,459 Descending Boston Center
Fri 04:03:32 AM 42.8378 -74.5183 100° East 451 519 12,300 -2,200 Descending Boston Center
Fri 04:03:51 AM 42.8342 -74.4872 99° East 447 514 11,900 -1,672 Descending Boston Center
Fri 04:04:33 AM 42.8342 -74.3653 90° East 402 463 10,600 -1,700 Descending Boston Center
Fri 04:04:51 AM 42.8414 -74.3203 78° East 404 465 10,200 -600 Descending Boston Center
Fri 04:05:33 AM 42.8572 -74.2358 76° East 323 372 10,000 -600 Descending Boston Center
Fri 04:05:51 AM 42.8597 -74.2103 82° East 354 407 9,600 -1,770 Descending Boston Center
Fri 04:06:34 AM 42.8756 -74.1231 76° East 291 335 8,200 -1,900 Descending Boston Center
Fri 04:06:51 AM 42.8803 -74.0892 79° East 303 349 7,700 -1,800 Descending Boston Center
Fri 04:07:34 AM 42.8939 -74.0131 76° East 290 334 6,400 -1,700 Descending Boston Center
Fri 04:07:51 AM 42.8961 -73.9931 81° East 288 331 6,000 -1,770 Descending Boston Center
Fri 04:08:35 AM 42.9119 -73.9086 76° East 285 328 4,600 -1,900 Descending Boston Center
Fri 04:08:51 AM 42.9144 -73.8775 84° East 288 331 4,100 -1,180 Descending Boston Center
Fri 04:09:36 AM 42.8986 -73.8175 110° East 260 299 3,400 -900 Descending Boston Center
Fri 04:09:51 AM 42.8797 -73.8114 167° South 243 280 3,200 -1,200 Descending Boston Center
Fri 04:10:36 AM 42.8339 -73.8103 179° South 207 238 2,200 -1,100 Descending Boston Center
Fri 04:10:51 AM 42.8297 -73.8131 206° Southwest 167 192 2,100 -1,279 Descending Boston Center
Fri 04:11:37 AM 42.7839 -73.8064 174° South 165 190 900 -1,565 Descending Boston Center

Login

Don't have an account? Register now (free) for customized features, flight alerts, and more!